createdAt,value
2022-11-03T00:00:20.908Z,4.43
2022-11-03T00:01:20.956Z,4.45
2022-11-03T00:02:20.974Z,4.34
2022-11-03T00:03:20.938Z,4.40
2022-11-03T00:04:20.954Z,4.39
2022-11-03T00:05:20.962Z,4.40
2022-11-03T00:06:20.971Z,4.32
2022-11-03T00:07:20.981Z,4.30
2022-11-03T00:08:20.997Z,4.39
2022-11-03T00:09:21.004Z,4.36
2022-11-03T00:10:21.015Z,4.28
2022-11-03T00:11:21.025Z,4.31
2022-11-03T00:12:21.035Z,4.30
2022-11-03T00:13:21.047Z,4.30
2022-11-03T00:14:21.055Z,4.34
2022-11-03T00:15:21.071Z,4.30
2022-11-03T00:16:21.077Z,4.31
2022-11-03T00:17:21.087Z,4.31
2022-11-03T00:18:21.098Z,4.31
2022-11-03T00:19:21.110Z,4.31
2022-11-03T00:20:21.129Z,4.38
2022-11-03T00:21:21.131Z,4.30
2022-11-03T00:22:21.140Z,4.32
2022-11-03T00:23:21.151Z,4.38
2022-11-03T00:24:21.160Z,4.28
2022-11-03T00:25:21.171Z,4.25
2022-11-03T00:26:21.181Z,4.25
2022-11-03T00:27:21.191Z,4.34
2022-11-03T00:28:21.203Z,4.27
2022-11-03T00:29:21.213Z,4.27
2022-11-03T00:30:21.223Z,4.28
2022-11-03T00:31:21.234Z,4.27
2022-11-03T00:32:21.244Z,4.22
2022-11-03T00:33:21.254Z,4.22
2022-11-03T00:34:21.265Z,4.31
2022-11-03T00:35:21.277Z,4.25
2022-11-03T00:36:21.288Z,4.30
2022-11-03T00:37:21.295Z,4.22
2022-11-03T00:38:21.308Z,4.21
2022-11-03T00:39:21.319Z,4.22
2022-11-03T00:40:21.328Z,4.20
2022-11-03T00:41:21.341Z,4.25
2022-11-03T00:42:21.356Z,4.22
2022-11-03T00:43:21.359Z,4.21
2022-11-03T00:44:21.369Z,4.21
2022-11-03T00:45:21.378Z,4.12
2022-11-03T00:46:21.395Z,4.16
2022-11-03T00:47:24.201Z,4.09
2022-11-03T00:48:21.412Z,4.24
2022-11-03T00:49:21.423Z,4.16
2022-11-03T00:50:21.431Z,4.13
2022-11-03T00:51:21.443Z,4.12
2022-11-03T00:52:21.453Z,4.14
2022-11-03T00:53:21.464Z,4.04
2022-11-03T00:54:21.482Z,4.04
2022-11-03T00:55:21.484Z,4.02
2022-11-03T00:56:21.495Z,4.09
2022-11-03T00:57:21.511Z,4.06
2022-11-03T00:58:21.514Z,4.12
2022-11-03T00:59:21.524Z,4.07
2022-11-03T01:00:21.535Z,4.12
2022-11-03T01:01:21.719Z,4.04
2022-11-03T01:02:21.609Z,4.03
2022-11-03T01:03:21.567Z,4.04
2022-11-03T01:04:21.579Z,4.06
2022-11-03T01:05:21.591Z,4.02
2022-11-03T01:06:21.599Z,4.04
2022-11-03T01:07:21.607Z,4.03
2022-11-03T01:08:23.746Z,4.03
2022-11-03T01:09:21.630Z,3.96
2022-11-03T01:10:21.638Z,3.89
2022-11-03T01:11:21.648Z,3.95
2022-11-03T01:12:21.661Z,3.91
2022-11-03T01:13:21.668Z,3.91
2022-11-03T01:14:21.680Z,3.95
2022-11-03T01:15:21.691Z,4.03
2022-11-03T01:16:21.699Z,3.89
2022-11-03T01:17:21.710Z,3.89
2022-11-03T01:18:21.719Z,3.92
2022-11-03T01:19:21.730Z,3.94
2022-11-03T01:20:21.741Z,3.91
2022-11-03T01:21:21.752Z,3.89
2022-11-03T01:22:21.761Z,3.96
2022-11-03T01:23:21.772Z,3.88
2022-11-03T01:24:21.783Z,3.89
2022-11-03T01:25:21.790Z,3.91
2022-11-03T01:26:21.801Z,3.89
2022-11-03T01:27:21.812Z,3.89
2022-11-03T01:28:21.823Z,3.92
2022-11-03T01:29:21.832Z,3.86
2022-11-03T01:30:21.843Z,3.88
2022-11-03T01:31:21.856Z,3.89
2022-11-03T01:32:21.863Z,3.86
2022-11-03T01:33:21.873Z,3.88
2022-11-03T01:34:21.903Z,3.88
2022-11-03T01:35:21.900Z,3.91
2022-11-03T01:36:21.929Z,3.94
2022-11-03T01:37:21.914Z,3.92
2022-11-03T01:38:21.925Z,3.92
2022-11-03T01:39:21.935Z,3.94
2022-11-03T01:40:21.945Z,3.92
2022-11-03T01:41:21.977Z,3.92
2022-11-03T01:42:21.976Z,3.89
2022-11-03T01:43:21.974Z,3.94
2022-11-03T01:44:21.985Z,3.92
2022-11-03T01:45:21.995Z,3.94
2022-11-03T01:46:22.007Z,3.89
2022-11-03T01:47:22.016Z,3.94
2022-11-03T01:48:22.027Z,4.03
2022-11-03T01:49:22.034Z,3.89
2022-11-03T01:50:22.050Z,4.02
2022-11-03T01:51:22.064Z,4.02
2022-11-03T01:52:22.068Z,4.00
2022-11-03T01:53:22.077Z,3.95
2022-11-03T01:54:22.085Z,4.06
2022-11-03T01:55:22.097Z,3.99
2022-11-03T01:56:22.107Z,4.06
2022-11-03T01:57:22.118Z,4.06
2022-11-03T01:58:22.133Z,4.00
2022-11-03T01:59:22.140Z,4.13
2022-11-03T02:00:22.151Z,4.04
2022-11-03T02:01:22.233Z,4.04
2022-11-03T02:02:22.256Z,4.06
2022-11-03T02:03:22.180Z,4.06
2022-11-03T02:04:22.190Z,4.10
2022-11-03T02:05:22.199Z,4.02
2022-11-03T02:06:22.209Z,4.13
2022-11-03T02:07:22.220Z,4.16
2022-11-03T02:08:22.231Z,4.07
2022-11-03T02:09:22.240Z,4.04
2022-11-03T02:10:22.250Z,4.10
2022-11-03T02:11:22.260Z,4.03
2022-11-03T02:12:22.272Z,4.13
2022-11-03T02:13:22.281Z,4.03
2022-11-03T02:14:22.296Z,4.13
2022-11-03T02:15:22.304Z,4.04
2022-11-03T02:16:22.314Z,4.13
2022-11-03T02:17:22.324Z,4.04
2022-11-03T02:18:22.335Z,4.04
2022-11-03T02:19:22.344Z,4.04
2022-11-03T02:20:22.352Z,4.10
2022-11-03T02:21:22.365Z,4.13
2022-11-03T02:22:22.372Z,4.13
2022-11-03T02:23:22.385Z,4.12
2022-11-03T02:24:22.395Z,4.18
2022-11-03T02:25:22.404Z,4.14
2022-11-03T02:26:22.416Z,4.10
2022-11-03T02:27:22.425Z,4.13
2022-11-03T02:28:22.435Z,4.06
2022-11-03T02:29:22.444Z,4.06
2022-11-03T02:30:22.455Z,4.22
2022-11-03T02:31:22.467Z,4.10
2022-11-03T02:32:22.478Z,4.13
2022-11-03T02:33:22.487Z,4.10
2022-11-03T02:34:22.496Z,4.20
2022-11-03T02:35:22.510Z,4.14
2022-11-03T02:36:22.519Z,4.21
2022-11-03T02:37:22.526Z,4.22
2022-11-03T02:38:22.534Z,4.20
2022-11-03T02:39:22.547Z,4.20
2022-11-03T02:40:22.558Z,4.14
2022-11-03T02:41:22.569Z,4.13
2022-11-03T02:42:22.576Z,4.21
2022-11-03T02:43:22.587Z,4.20
2022-11-03T02:44:22.597Z,4.22
2022-11-03T02:45:22.617Z,4.22
2022-11-03T02:46:22.617Z,4.21
2022-11-03T02:47:22.627Z,4.22
2022-11-03T02:48:22.639Z,4.22
2022-11-03T02:49:22.649Z,4.24
2022-11-03T02:50:22.658Z,4.30
2022-11-03T02:51:22.668Z,4.22
2022-11-03T02:52:22.680Z,4.24
2022-11-03T02:53:22.690Z,4.32
2022-11-03T02:54:22.701Z,4.20
2022-11-03T02:55:22.715Z,4.32
2022-11-03T02:56:22.720Z,4.34
2022-11-03T02:57:22.729Z,4.38
2022-11-03T02:58:22.739Z,4.30
2022-11-03T02:59:22.751Z,4.32
2022-11-03T03:00:22.761Z,4.30
2022-11-03T03:01:22.858Z,4.36
2022-11-03T03:02:22.847Z,4.38
2022-11-03T03:03:22.794Z,4.38
2022-11-03T03:04:22.803Z,4.31
2022-11-03T03:05:22.813Z,4.34
2022-11-03T03:06:22.824Z,4.32
2022-11-03T03:07:22.834Z,4.32
2022-11-03T03:08:22.844Z,4.36
2022-11-03T03:09:22.854Z,4.32
2022-11-03T03:10:22.863Z,4.39
2022-11-03T03:11:22.934Z,4.30
2022-11-03T03:12:22.886Z,4.39
2022-11-03T03:13:22.894Z,4.46
2022-11-03T03:14:22.905Z,4.39
2022-11-03T03:15:22.914Z,4.39
2022-11-03T03:16:22.926Z,4.43
2022-11-03T03:17:22.935Z,4.45
2022-11-03T03:18:22.949Z,4.49
2022-11-03T03:19:22.959Z,4.48
2022-11-03T03:20:22.967Z,4.48
2022-11-03T03:21:22.979Z,4.49
2022-11-03T03:22:22.990Z,4.48
2022-11-03T03:23:23.002Z,4.52
2022-11-03T03:24:23.009Z,4.58
2022-11-03T03:25:23.018Z,4.49
2022-11-03T03:26:23.029Z,4.52
2022-11-03T03:27:23.040Z,4.52
2022-11-03T03:28:23.052Z,4.58
2022-11-03T03:29:23.061Z,4.57
2022-11-03T03:30:23.072Z,4.63
2022-11-03T03:31:23.085Z,4.58
2022-11-03T03:32:23.096Z,4.58
2022-11-03T03:33:23.157Z,4.53
2022-11-03T03:34:33.739Z,4.63
2022-11-03T03:35:23.126Z,4.60
2022-11-03T03:36:23.136Z,4.61
2022-11-03T03:37:23.145Z,4.63
2022-11-03T03:38:23.157Z,4.63
2022-11-03T03:39:23.216Z,4.64
2022-11-03T03:40:23.178Z,4.64
2022-11-03T03:41:23.189Z,4.63
2022-11-03T03:42:23.204Z,4.63
2022-11-03T03:43:23.209Z,4.60
2022-11-03T03:44:23.219Z,4.60
2022-11-03T03:45:23.232Z,4.60
2022-11-03T03:46:23.237Z,4.58
2022-11-03T03:47:23.254Z,4.61
2022-11-03T03:48:23.265Z,4.63
2022-11-03T03:49:23.271Z,4.64
2022-11-03T03:50:23.283Z,4.57
2022-11-03T03:51:23.296Z,4.63
2022-11-03T03:52:23.305Z,4.63
2022-11-03T03:53:23.314Z,4.58
2022-11-03T03:54:23.324Z,4.63
2022-11-03T03:56:23.350Z,4.66
2022-11-03T03:57:23.359Z,4.60
2022-11-03T03:58:23.369Z,4.63
2022-11-03T03:59:23.379Z,4.61
2022-11-03T04:00:23.390Z,4.64
2022-11-03T04:01:23.563Z,4.64
2022-11-03T04:02:23.471Z,4.63
2022-11-03T04:03:23.432Z,4.52
2022-11-03T04:04:23.449Z,4.56
2022-11-03T04:05:23.442Z,4.63
2022-11-03T04:06:23.453Z,4.56
2022-11-03T04:07:23.465Z,4.50
2022-11-03T04:08:23.474Z,4.57
2022-11-03T04:09:23.484Z,4.50
2022-11-03T04:10:23.498Z,4.57
2022-11-03T04:11:23.512Z,4.52
2022-11-03T04:12:23.519Z,4.56
2022-11-03T04:13:23.525Z,4.56
2022-11-03T04:14:23.538Z,4.57
2022-11-03T04:15:23.549Z,4.56
2022-11-03T04:16:23.558Z,4.49
2022-11-03T04:17:23.570Z,4.48
2022-11-03T04:18:23.579Z,4.53
2022-11-03T04:19:23.588Z,4.46
2022-11-03T04:20:23.602Z,4.52
2022-11-03T04:21:23.613Z,4.49
2022-11-03T04:22:23.621Z,4.46
2022-11-03T04:23:23.632Z,4.53
2022-11-03T04:24:23.643Z,4.49
2022-11-03T04:25:23.655Z,4.56
2022-11-03T04:26:23.664Z,4.48
2022-11-03T04:27:23.675Z,4.43
2022-11-03T04:28:23.684Z,4.52
2022-11-03T04:29:23.711Z,4.50
2022-11-03T04:30:23.704Z,4.43
2022-11-03T04:31:23.716Z,4.50
2022-11-03T04:32:23.728Z,4.40
2022-11-03T04:33:23.733Z,4.42
2022-11-03T04:34:23.746Z,4.40
2022-11-03T04:35:23.961Z,4.40
2022-11-03T04:36:23.770Z,4.45
2022-11-03T04:37:23.801Z,4.42
2022-11-03T04:38:23.798Z,4.42
2022-11-03T04:39:23.803Z,4.40
2022-11-03T04:40:23.809Z,4.43
2022-11-03T04:41:23.817Z,4.43
2022-11-03T04:42:23.839Z,4.43
2022-11-03T04:43:23.844Z,4.43
2022-11-03T04:44:23.866Z,4.42
2022-11-03T04:45:23.861Z,4.43
2022-11-03T04:46:23.875Z,4.42
2022-11-03T04:47:23.883Z,4.38
2022-11-03T04:48:23.894Z,4.42
2022-11-03T04:49:23.904Z,4.32
2022-11-03T04:50:23.914Z,4.30
2022-11-03T04:51:23.923Z,4.34
2022-11-03T04:52:23.934Z,4.39
2022-11-03T04:53:23.944Z,4.39
2022-11-03T04:54:23.960Z,4.32
2022-11-03T04:55:23.966Z,4.27
2022-11-03T04:56:23.975Z,4.36
2022-11-03T04:57:23.987Z,4.28
2022-11-03T04:58:23.999Z,4.36
2022-11-03T04:59:24.008Z,4.36
2022-11-03T05:00:24.019Z,4.31
2022-11-03T05:01:24.756Z,4.36
2022-11-03T05:02:24.039Z,4.28
2022-11-03T05:03:24.046Z,4.32
2022-11-03T05:04:24.059Z,4.36
2022-11-03T05:05:24.070Z,4.30
2022-11-03T05:06:24.079Z,4.31
2022-11-03T05:07:24.091Z,4.31
2022-11-03T05:08:24.102Z,4.34
2022-11-03T05:09:24.111Z,4.38
2022-11-03T05:10:24.124Z,4.31
2022-11-03T05:11:24.131Z,4.32
2022-11-03T05:12:24.141Z,4.27
2022-11-03T05:13:24.155Z,4.32
2022-11-03T05:14:24.161Z,4.32
2022-11-03T05:15:24.174Z,4.27
2022-11-03T05:16:24.182Z,4.24
2022-11-03T05:17:24.203Z,4.27
2022-11-03T05:18:24.203Z,4.31
2022-11-03T05:19:24.212Z,4.28
2022-11-03T05:20:24.224Z,4.21
2022-11-03T05:21:24.237Z,4.22
2022-11-03T05:22:24.242Z,4.24
2022-11-03T05:23:24.256Z,4.22
2022-11-03T05:24:24.265Z,4.20
2022-11-03T05:25:24.276Z,4.24
2022-11-03T05:26:24.288Z,4.22
2022-11-03T05:27:24.295Z,4.20
2022-11-03T05:28:24.304Z,4.13
2022-11-03T05:29:24.315Z,4.24
2022-11-03T05:30:24.327Z,4.04
2022-11-03T05:31:24.334Z,4.21
2022-11-03T05:32:24.345Z,4.18
2022-11-03T05:33:24.355Z,4.14
2022-11-03T05:34:24.365Z,4.04
2022-11-03T05:35:24.374Z,4.14
2022-11-03T05:36:24.386Z,4.10
2022-11-03T05:37:26.848Z,4.14
2022-11-03T05:38:24.406Z,4.03
2022-11-03T05:39:24.415Z,4.00
2022-11-03T05:40:24.426Z,4.02
2022-11-03T05:41:24.437Z,4.04
2022-11-03T05:42:24.455Z,4.10
2022-11-03T05:43:24.457Z,4.06
2022-11-03T05:44:24.467Z,4.06
2022-11-03T05:45:24.475Z,4.07
2022-11-03T05:46:24.486Z,4.03
2022-11-03T05:47:24.500Z,4.07
2022-11-03T05:48:24.508Z,4.06
2022-11-03T05:49:24.518Z,4.03
2022-11-03T05:50:24.529Z,4.10
2022-11-03T05:51:24.540Z,4.10
2022-11-03T05:52:24.547Z,4.06
2022-11-03T05:53:24.559Z,4.07
2022-11-03T05:54:24.572Z,4.07
2022-11-03T05:55:24.577Z,4.10
2022-11-03T05:56:24.587Z,4.02
2022-11-03T05:57:24.599Z,4.09
2022-11-03T05:58:24.609Z,4.10
2022-11-03T05:59:24.617Z,4.10
2022-11-03T06:00:24.629Z,4.07
2022-11-03T06:01:24.673Z,4.14
2022-11-03T06:02:24.699Z,4.02
2022-11-03T06:03:24.658Z,3.99
2022-11-03T06:04:24.668Z,4.06
2022-11-03T06:05:24.678Z,4.00
2022-11-03T06:06:28.127Z,4.06
2022-11-03T06:07:24.698Z,4.00
2022-11-03T06:09:24.724Z,4.06
2022-11-03T06:10:24.729Z,4.10
2022-11-03T06:11:24.738Z,4.06
2022-11-03T06:12:24.750Z,4.12
2022-11-03T06:13:24.759Z,4.14
2022-11-03T06:14:25.008Z,4.18
2022-11-03T06:15:24.783Z,4.16
2022-11-03T06:16:24.791Z,4.12
2022-11-03T06:17:24.799Z,4.07
2022-11-03T06:18:24.808Z,4.20
2022-11-03T06:19:24.819Z,4.18
2022-11-03T06:20:24.831Z,4.18
2022-11-03T06:21:24.841Z,4.10
2022-11-03T06:22:24.851Z,4.04
2022-11-03T06:23:24.860Z,4.20
2022-11-03T06:24:24.870Z,4.14
2022-11-03T06:25:24.885Z,4.18
2022-11-03T06:26:24.889Z,4.07
2022-11-03T06:27:24.904Z,4.04
2022-11-03T06:28:24.912Z,4.04
2022-11-03T06:29:24.920Z,4.03
2022-11-03T06:30:24.930Z,4.04
2022-11-03T06:31:24.942Z,4.03
2022-11-03T06:32:24.954Z,4.12
2022-11-03T06:33:24.964Z,4.07
2022-11-03T06:34:24.974Z,4.09
2022-11-03T06:35:24.985Z,4.16
2022-11-03T06:36:24.992Z,4.14
2022-11-03T06:37:25.004Z,4.02
2022-11-03T06:38:25.015Z,4.14
2022-11-03T06:39:25.029Z,4.03
2022-11-03T06:40:25.033Z,4.04
2022-11-03T06:41:25.043Z,4.06
2022-11-03T06:42:30.739Z,4.03
2022-11-03T06:43:25.064Z,4.03
2022-11-03T06:44:25.075Z,4.06
2022-11-03T06:45:25.084Z,4.10
2022-11-03T06:46:25.093Z,4.06
2022-11-03T06:47:25.110Z,4.06
2022-11-03T06:48:25.116Z,4.03
2022-11-03T06:49:25.129Z,4.09
2022-11-03T06:50:25.136Z,4.12
2022-11-03T06:51:25.147Z,4.07
2022-11-03T06:52:25.155Z,4.06
2022-11-03T06:53:25.164Z,4.02
2022-11-03T06:54:25.180Z,4.03
2022-11-03T06:55:25.186Z,4.04
2022-11-03T06:56:25.197Z,4.09
2022-11-03T06:57:25.207Z,4.06
2022-11-03T06:58:25.218Z,4.02
2022-11-03T06:59:25.229Z,4.04
2022-11-03T07:00:41.567Z,4.07
2022-11-03T07:01:25.331Z,4.00
2022-11-03T07:02:25.365Z,3.99
2022-11-03T07:03:25.270Z,3.96
2022-11-03T07:04:25.277Z,4.02
2022-11-03T07:05:25.288Z,4.02
2022-11-03T07:06:25.299Z,4.06
2022-11-03T07:07:25.309Z,4.06
2022-11-03T07:08:25.320Z,3.99
2022-11-03T07:09:25.328Z,4.00
2022-11-03T07:10:25.342Z,3.99
2022-11-03T07:11:25.350Z,4.02
2022-11-03T07:12:25.363Z,4.02
2022-11-03T07:13:25.371Z,4.04
2022-11-03T07:14:25.380Z,4.02
2022-11-03T07:15:25.393Z,4.10
2022-11-03T07:16:25.399Z,4.04
2022-11-03T07:17:25.423Z,4.09
2022-11-03T07:18:25.418Z,4.06
2022-11-03T07:19:25.432Z,4.04
2022-11-03T07:20:25.446Z,4.13
2022-11-03T07:21:25.469Z,4.06
2022-11-03T07:22:25.464Z,4.13
2022-11-03T07:23:25.480Z,4.20
2022-11-03T07:24:25.485Z,4.25
2022-11-03T07:25:25.493Z,4.18
2022-11-03T07:26:25.504Z,4.25
2022-11-03T07:27:25.520Z,4.32
2022-11-03T07:28:25.528Z,4.28
2022-11-03T07:29:25.536Z,4.20
2022-11-03T07:30:25.548Z,4.34
2022-11-03T07:31:25.559Z,4.31
2022-11-03T07:32:25.568Z,4.40
2022-11-03T07:33:25.579Z,4.38
2022-11-03T07:34:25.596Z,4.45
2022-11-03T07:35:25.600Z,4.53
2022-11-03T07:36:25.611Z,4.50
2022-11-03T07:37:25.621Z,4.58
2022-11-03T07:38:25.633Z,4.61
2022-11-03T07:39:25.643Z,4.71
2022-11-03T07:40:25.656Z,4.68
2022-11-03T07:41:28.220Z,4.86
2022-11-03T07:42:25.691Z,4.84
2022-11-03T07:43:25.686Z,4.94
2022-11-03T07:44:25.699Z,4.92
2022-11-03T07:45:25.709Z,5.04
2022-11-03T07:46:25.721Z,5.01
2022-11-03T07:47:25.761Z,5.10
2022-11-03T07:48:25.746Z,5.19
2022-11-03T07:49:25.752Z,5.23
2022-11-03T07:50:25.764Z,5.22
2022-11-03T07:51:25.774Z,5.31
2022-11-03T07:52:25.796Z,5.38
2022-11-03T07:53:26.179Z,5.46
2022-11-03T07:54:25.809Z,5.46
2022-11-03T07:55:25.820Z,5.49
2022-11-03T07:56:25.936Z,5.59
2022-11-03T07:57:25.841Z,5.44
2022-11-03T07:58:25.852Z,5.64
2022-11-03T07:59:25.884Z,5.59
2022-11-03T08:00:25.885Z,5.76
2022-11-03T08:01:25.947Z,5.76
2022-11-03T08:02:25.928Z,5.73
2022-11-03T08:03:25.912Z,5.83
2022-11-03T08:04:25.923Z,5.90
2022-11-03T08:05:25.937Z,5.92
2022-11-03T08:06:25.959Z,5.94
2022-11-03T08:07:25.957Z,5.91
2022-11-03T08:08:25.971Z,6.10
2022-11-03T08:09:25.981Z,6.06
2022-11-03T08:10:26.025Z,6.02
2022-11-03T08:11:28.992Z,6.12
2022-11-03T08:12:26.040Z,6.15
2022-11-03T08:13:26.052Z,6.22
2022-11-03T08:14:26.051Z,6.19
2022-11-03T08:15:26.058Z,6.25
2022-11-03T08:16:26.110Z,6.31
2022-11-03T08:17:26.077Z,6.31
2022-11-03T08:18:26.089Z,6.31
2022-11-03T08:19:26.099Z,6.26
2022-11-03T08:20:26.287Z,6.25
2022-11-03T08:21:26.125Z,6.31
2022-11-03T08:22:26.242Z,6.36
2022-11-03T08:23:26.632Z,6.39
2022-11-03T08:24:26.162Z,6.39
2022-11-03T08:25:26.170Z,6.52
2022-11-03T08:26:26.184Z,6.52
2022-11-03T08:27:26.195Z,6.47
2022-11-03T08:28:26.211Z,6.46
2022-11-03T08:29:26.219Z,6.49
2022-11-03T08:30:26.232Z,6.47
2022-11-03T08:31:26.245Z,6.56
2022-11-03T08:32:26.259Z,6.50
2022-11-03T08:33:26.316Z,6.60
2022-11-03T08:34:26.281Z,6.62
2022-11-03T08:35:30.038Z,6.59
2022-11-03T08:36:26.313Z,6.56
2022-11-03T08:37:26.317Z,6.57
2022-11-03T08:38:26.330Z,6.68
2022-11-03T08:39:26.340Z,6.67
2022-11-03T08:40:26.354Z,6.71
2022-11-03T08:41:26.373Z,6.74
2022-11-03T08:42:26.378Z,6.77
2022-11-03T08:43:26.387Z,6.80
2022-11-03T08:44:26.400Z,6.77
2022-11-03T08:45:26.412Z,6.87
2022-11-03T08:46:26.426Z,6.87
2022-11-03T08:47:26.440Z,6.83
2022-11-03T08:48:26.451Z,6.89
2022-11-03T08:49:26.460Z,6.92
2022-11-03T08:50:26.473Z,6.90
2022-11-03T08:51:26.487Z,6.96
2022-11-03T08:52:26.499Z,7.03
2022-11-03T08:53:26.509Z,7.05
2022-11-03T08:54:26.525Z,7.10
2022-11-03T08:55:26.535Z,7.13
2022-11-03T08:56:26.551Z,7.11
2022-11-03T08:57:26.560Z,7.21
2022-11-03T08:58:26.573Z,7.18
2022-11-03T08:59:26.587Z,7.23
2022-11-03T09:00:26.599Z,7.28
2022-11-03T09:01:26.652Z,7.32
2022-11-03T09:02:26.697Z,7.43
2022-11-03T09:03:26.670Z,7.43
2022-11-03T09:04:26.648Z,7.46
2022-11-03T09:05:26.661Z,7.43
2022-11-03T09:06:26.672Z,7.55
2022-11-03T09:10:33.231Z,7.61
2022-11-03T09:11:26.738Z,7.69
2022-11-03T09:12:26.751Z,7.67
2022-11-03T09:13:26.767Z,7.83
2022-11-03T09:14:26.777Z,7.80
2022-11-03T09:15:26.823Z,7.85
2022-11-03T09:16:26.802Z,7.88
2022-11-03T09:17:26.816Z,7.91
2022-11-03T09:18:26.827Z,7.93
2022-11-03T09:19:26.843Z,7.98
2022-11-03T09:20:26.854Z,8.09
2022-11-03T09:21:26.866Z,8.14
2022-11-03T09:22:26.882Z,8.08
2022-11-03T09:23:26.899Z,8.21
2022-11-03T09:24:26.908Z,8.27
2022-11-03T09:25:26.921Z,8.24
2022-11-03T09:26:26.935Z,8.32
2022-11-03T09:27:26.949Z,8.35
2022-11-03T09:28:26.960Z,8.36
2022-11-03T09:29:30.064Z,8.41
2022-11-03T09:30:26.987Z,8.54
2022-11-03T09:31:27.000Z,8.54
2022-11-03T09:32:27.016Z,8.60
2022-11-03T09:33:27.026Z,8.56
2022-11-03T09:34:27.039Z,8.66
2022-11-03T09:35:27.056Z,8.64
2022-11-03T09:36:27.076Z,8.69
2022-11-03T09:37:27.079Z,8.72
2022-11-03T09:38:27.102Z,8.77
2022-11-03T09:39:27.108Z,8.79
2022-11-03T09:40:27.122Z,8.82
2022-11-03T09:41:43.006Z,8.86
2022-11-03T09:42:27.149Z,8.97
2022-11-03T09:43:27.164Z,8.95
2022-11-03T09:44:27.179Z,9.00
2022-11-03T09:45:27.189Z,9.11
2022-11-03T09:46:27.205Z,9.13
2022-11-03T09:47:27.220Z,9.18
2022-11-03T09:48:27.233Z,9.16
2022-11-03T09:49:27.250Z,9.15
2022-11-03T09:50:27.260Z,9.27
2022-11-03T09:51:27.274Z,9.27
2022-11-03T09:52:27.288Z,9.34
2022-11-03T09:53:27.305Z,9.31
2022-11-03T09:54:27.315Z,9.44
2022-11-03T09:55:27.331Z,9.45
2022-11-03T09:56:27.345Z,9.48
2022-11-03T09:57:27.357Z,9.56
2022-11-03T09:58:27.374Z,9.55
2022-11-03T09:59:27.388Z,9.67
2022-11-03T10:00:27.441Z,9.72
2022-11-03T10:01:27.551Z,9.74
2022-11-03T10:02:27.516Z,9.80
2022-11-03T10:03:27.450Z,9.80
2022-11-03T10:04:27.461Z,9.87
2022-11-03T10:05:27.473Z,9.94
2022-11-03T10:06:27.488Z,9.97
2022-11-03T10:07:27.506Z,10.02
2022-11-03T10:08:27.523Z,10.06
2022-11-03T10:09:27.533Z,10.10
2022-11-03T10:10:27.548Z,10.10
2022-11-03T10:11:27.582Z,10.20
2022-11-03T10:12:27.595Z,10.28
2022-11-03T10:13:27.595Z,10.46
2022-11-03T10:14:27.610Z,10.36
2022-11-03T10:15:27.628Z,10.41
2022-11-03T10:16:27.645Z,10.46
2022-11-03T10:17:27.672Z,10.53
2022-11-03T10:18:27.676Z,10.61
2022-11-03T10:19:27.683Z,10.71
2022-11-03T10:20:27.698Z,10.69
2022-11-03T10:21:27.713Z,10.68
2022-11-03T10:22:27.729Z,10.79
2022-11-03T10:23:27.747Z,10.83
2022-11-03T10:24:27.761Z,10.90
2022-11-03T10:25:27.776Z,10.89
2022-11-03T10:26:27.793Z,10.95
2022-11-03T10:27:27.807Z,11.04
2022-11-03T10:28:27.830Z,11.10
2022-11-03T10:29:27.842Z,11.12
2022-11-03T10:30:32.448Z,11.16
2022-11-03T10:31:27.870Z,11.26
2022-11-03T10:32:27.887Z,11.27
2022-11-03T10:33:27.900Z,11.34
2022-11-03T10:34:27.919Z,11.35
2022-11-03T10:35:27.933Z,11.45
2022-11-03T10:36:27.949Z,11.45
2022-11-03T10:37:27.968Z,11.48
2022-11-03T10:38:27.983Z,11.53
2022-11-03T10:39:27.999Z,11.67
2022-11-03T10:40:47.436Z,11.74
2022-11-03T10:41:28.030Z,11.71
2022-11-03T10:42:33.590Z,11.76
2022-11-03T10:43:28.070Z,11.81
2022-11-03T10:44:28.080Z,11.86
2022-11-03T10:45:28.096Z,11.89
2022-11-03T10:47:28.129Z,11.99
2022-11-03T10:48:28.149Z,12.07
2022-11-03T10:49:28.162Z,12.15
2022-11-03T10:50:28.182Z,12.12
2022-11-03T10:51:28.196Z,12.21
2022-11-03T10:52:28.239Z,12.20
2022-11-03T10:53:28.247Z,12.30
2022-11-03T10:54:28.244Z,12.30
2022-11-03T10:55:28.344Z,12.28
2022-11-03T10:56:28.280Z,12.39
2022-11-03T10:57:28.301Z,12.47
2022-11-03T10:58:28.316Z,12.47
2022-11-03T10:59:28.331Z,12.53
2022-11-03T11:00:28.349Z,12.54
2022-11-03T11:01:28.575Z,12.66
2022-11-03T11:02:28.441Z,12.63
2022-11-03T11:03:28.400Z,12.72
2022-11-03T11:04:28.518Z,12.70
2022-11-03T11:05:28.432Z,12.78
2022-11-03T11:06:28.450Z,12.66
2022-11-03T11:07:28.469Z,12.76
2022-11-03T11:08:28.587Z,12.83
2022-11-03T11:09:28.505Z,12.84
2022-11-03T11:10:28.521Z,12.91
2022-11-03T11:11:28.538Z,12.98
2022-11-03T11:12:28.560Z,12.95
2022-11-03T11:13:28.573Z,12.98
2022-11-03T11:14:28.590Z,13.02
2022-11-03T11:15:28.608Z,12.99
2022-11-03T11:16:28.635Z,13.03
2022-11-03T11:17:28.645Z,13.13
2022-11-03T11:18:28.665Z,13.23
2022-11-03T11:19:28.679Z,13.16
2022-11-03T11:20:28.696Z,13.09
2022-11-03T11:21:31.955Z,13.08
2022-11-03T11:22:28.731Z,13.09
2022-11-03T11:23:28.789Z,13.13
2022-11-03T11:24:28.768Z,13.21
2022-11-03T11:25:28.789Z,13.28
2022-11-03T11:26:28.812Z,13.24
2022-11-03T11:27:28.822Z,13.16
2022-11-03T11:28:28.838Z,13.36
2022-11-03T11:29:28.854Z,13.28
2022-11-03T11:30:28.874Z,13.26
2022-11-03T11:31:28.891Z,13.27
2022-11-03T11:32:28.911Z,13.31
2022-11-03T11:33:28.928Z,13.31
2022-11-03T11:34:28.945Z,13.28
2022-11-03T11:35:28.963Z,13.31
2022-11-03T11:36:28.979Z,13.33
2022-11-03T11:37:28.998Z,13.28
2022-11-03T11:38:29.022Z,13.36
2022-11-03T11:39:29.036Z,13.33
2022-11-03T11:40:29.058Z,13.37
2022-11-03T11:41:29.071Z,13.36
2022-11-03T11:42:30.507Z,13.33
2022-11-03T11:43:29.107Z,13.37
2022-11-03T11:44:29.124Z,13.36
2022-11-03T11:45:29.141Z,13.31
2022-11-03T11:46:29.160Z,13.39
2022-11-03T11:47:29.177Z,13.42
2022-11-03T11:48:29.194Z,13.36
2022-11-03T11:49:29.217Z,13.37
2022-11-03T11:50:29.231Z,13.37
2022-11-03T11:51:29.251Z,13.40
2022-11-03T11:52:29.267Z,13.46
2022-11-03T11:53:31.891Z,13.46
2022-11-03T11:54:29.301Z,13.47
2022-11-03T11:55:29.324Z,13.46
2022-11-03T11:56:29.349Z,13.47
2022-11-03T11:57:29.355Z,13.54
2022-11-03T11:58:29.376Z,13.50
2022-11-03T11:59:29.390Z,13.46
2022-11-03T12:00:29.410Z,13.50
2022-11-03T12:01:29.462Z,13.52
2022-11-03T12:02:29.444Z,13.58
2022-11-03T12:03:29.481Z,13.47
2022-11-03T12:04:29.481Z,13.43
2022-11-03T12:05:29.511Z,13.50
2022-11-03T12:06:29.543Z,13.50
2022-11-03T12:07:29.532Z,13.47
2022-11-03T12:08:29.558Z,13.46
2022-11-03T12:09:29.580Z,13.54
2022-11-03T12:10:29.589Z,13.52
2022-11-03T12:11:29.649Z,13.43
2022-11-03T12:12:29.626Z,13.55
2022-11-03T12:13:29.641Z,13.57
2022-11-03T12:14:29.659Z,13.54
2022-11-03T12:15:29.677Z,13.58
2022-11-03T12:16:29.749Z,13.49
2022-11-03T12:17:29.712Z,13.50
2022-11-03T12:18:30.561Z,13.58
2022-11-03T12:19:29.750Z,13.58
2022-11-03T12:20:29.769Z,13.58
2022-11-03T12:21:29.784Z,13.60
2022-11-03T12:22:29.805Z,13.58
2022-11-03T12:23:29.824Z,13.58
2022-11-03T12:24:29.843Z,13.58
2022-11-03T12:25:29.856Z,13.58
2022-11-03T12:26:29.875Z,13.50
2022-11-03T12:27:29.893Z,13.52
2022-11-03T12:28:29.909Z,13.58
2022-11-03T12:29:29.927Z,13.55
2022-11-03T12:30:29.947Z,13.57
2022-11-03T12:31:31.746Z,13.60
2022-11-03T12:32:35.006Z,13.54
2022-11-03T12:33:30.000Z,13.71
2022-11-03T12:34:30.020Z,13.55
2022-11-03T12:35:30.038Z,13.68
2022-11-03T12:36:30.054Z,13.65
2022-11-03T12:37:30.076Z,13.67
2022-11-03T12:38:30.089Z,13.67
2022-11-03T12:39:30.108Z,13.65
2022-11-03T12:40:30.126Z,13.57
2022-11-03T12:41:30.141Z,13.67
2022-11-03T12:42:30.161Z,13.60
2022-11-03T12:43:30.184Z,13.70
2022-11-03T12:44:30.269Z,13.62
2022-11-03T12:45:30.214Z,13.68
2022-11-03T12:46:30.236Z,13.65
2022-11-03T12:47:30.251Z,13.70
2022-11-03T12:48:30.271Z,13.62
2022-11-03T12:49:30.286Z,13.76
2022-11-03T12:50:30.308Z,13.64
2022-11-03T12:51:30.322Z,13.71
2022-11-03T12:52:30.341Z,13.64
2022-11-03T12:53:30.365Z,13.65
2022-11-03T12:54:30.374Z,13.64
2022-11-03T12:55:30.409Z,13.75
2022-11-03T12:56:30.422Z,13.70
2022-11-03T12:57:30.430Z,13.70
2022-11-03T12:58:30.447Z,13.83
2022-11-03T12:59:30.468Z,13.65
2022-11-03T13:00:30.485Z,13.70
2022-11-03T13:01:30.620Z,13.73
2022-11-03T13:02:30.662Z,13.68
2022-11-03T13:03:30.540Z,13.78
2022-11-03T13:04:30.557Z,13.68
2022-11-03T13:05:30.573Z,13.76
2022-11-03T13:06:30.594Z,13.73
2022-11-03T13:07:34.517Z,13.76
2022-11-03T13:08:30.630Z,13.83
2022-11-03T13:09:30.644Z,13.79
2022-11-03T13:10:30.665Z,13.76
2022-11-03T13:11:30.683Z,13.76
2022-11-03T13:12:30.703Z,13.73
2022-11-03T13:13:30.717Z,13.70
2022-11-03T13:14:30.735Z,13.83
2022-11-03T13:15:30.754Z,13.83
2022-11-03T13:16:30.774Z,13.79
2022-11-03T13:17:40.432Z,13.78
2022-11-03T13:18:30.808Z,13.82